createdAt,value
2023-01-27T00:00:15.096Z,96990.94
2023-01-27T00:05:55.645Z,96999.19
2023-01-27T00:11:34.741Z,96997.72
2023-01-27T00:16:55.437Z,97001.63
2023-01-27T00:22:34.539Z,97003.31
2023-01-27T00:27:55.438Z,97004.47
2023-01-27T00:33:25.371Z,97002.47
2023-01-27T00:38:46.054Z,96994.81
2023-01-27T00:44:13.542Z,97000.88
2023-01-27T00:49:35.280Z,97008.72
2023-01-27T00:54:55.853Z,97007.97
2023-01-27T01:00:17.217Z,97004.44
2023-01-27T01:05:38.207Z,97017.66
2023-01-27T01:10:59.250Z,97019.88
2023-01-27T01:16:22.912Z,97010.66
2023-01-27T01:21:43.561Z,97014.94
2023-01-27T01:27:04.482Z,97008.47
2023-01-27T01:32:25.220Z,97010.47
2023-01-27T01:37:46.017Z,96997.53
2023-01-27T01:43:13.350Z,97012.22
2023-01-27T01:48:56.090Z,97009.56
2023-01-27T01:54:25.975Z,97005.16
2023-01-27T01:59:58.464Z,97004.84
2023-01-27T02:05:29.707Z,96996.94
2023-01-27T02:10:50.907Z,96979.00
2023-01-27T02:16:12.182Z,96975.69
2023-01-27T02:21:33.238Z,96986.72
2023-01-27T02:26:53.876Z,96978.66
2023-01-27T02:32:25.681Z,96984.16
2023-01-27T02:37:51.263Z,96977.66
2023-01-27T02:43:12.520Z,96976.88
2023-01-27T02:48:33.203Z,96984.00
2023-01-27T02:53:53.972Z,96984.50
2023-01-27T02:59:16.159Z,96988.97
2023-01-27T03:04:38.907Z,96980.59
2023-01-27T03:10:00.142Z,96974.59
2023-01-27T03:15:42.218Z,96975.97
2023-01-27T03:21:06.747Z,96971.19
2023-01-27T03:26:27.783Z,96974.69
2023-01-27T03:31:52.142Z,96976.56
2023-01-27T03:37:32.670Z,96981.03
2023-01-27T03:43:12.406Z,96984.09
2023-01-27T03:48:33.687Z,96977.84
2023-01-27T03:53:54.639Z,96989.69
2023-01-27T03:59:15.306Z,96989.84
2023-01-27T04:04:54.713Z,96981.09
2023-01-27T04:10:16.084Z,96985.16
2023-01-27T04:15:38.380Z,96985.94
2023-01-27T04:20:59.491Z,96989.47
2023-01-27T04:26:20.780Z,96985.31
2023-01-27T04:31:42.620Z,96978.53
2023-01-27T04:37:05.497Z,96990.69
2023-01-27T04:42:26.205Z,96990.81
2023-01-27T04:47:46.948Z,96997.06
2023-01-27T04:53:07.544Z,96999.81
2023-01-27T04:58:28.236Z,97001.13
2023-01-27T05:03:49.039Z,97021.41
2023-01-27T05:09:09.868Z,97025.00
2023-01-27T05:14:30.527Z,97033.94
2023-01-27T05:19:51.287Z,97033.78
2023-01-27T05:25:12.527Z,97045.75
2023-01-27T05:30:33.947Z,97042.09
2023-01-27T05:35:54.656Z,97041.63
2023-01-27T05:41:17.483Z,97046.94
2023-01-27T05:46:40.454Z,97055.59
2023-01-27T05:52:01.134Z,97057.06
2023-01-27T05:57:21.885Z,97064.63
2023-01-27T06:02:42.524Z,97064.84
2023-01-27T06:08:03.548Z,97063.56
2023-01-27T06:13:25.098Z,97066.06
2023-01-27T06:18:47.242Z,97072.03
2023-01-27T06:24:08.217Z,97067.50
2023-01-27T06:29:29.098Z,97065.63
2023-01-27T06:34:49.800Z,97060.72
2023-01-27T06:40:11.696Z,97062.56
2023-01-27T06:45:32.667Z,97065.75
2023-01-27T06:50:54.704Z,97067.84
2023-01-27T06:56:17.481Z,97065.88
2023-01-27T07:01:38.303Z,97069.16
2023-01-27T07:06:58.859Z,97073.84
2023-01-27T07:12:19.723Z,97072.25
2023-01-27T07:17:40.790Z,97078.97
2023-01-27T07:23:04.706Z,97076.88
2023-01-27T07:28:25.679Z,97080.28
2023-01-27T07:33:46.583Z,97085.59
2023-01-27T07:39:07.421Z,97088.00
2023-01-27T07:44:28.905Z,97091.72
2023-01-27T07:49:50.337Z,97084.63
2023-01-27T07:55:11.406Z,97099.09
2023-01-27T08:00:32.886Z,97091.94
2023-01-27T08:05:53.737Z,97083.94
2023-01-27T08:11:15.675Z,97084.84
2023-01-27T08:16:36.750Z,97091.75
2023-01-27T08:21:57.822Z,97087.41
2023-01-27T08:27:18.514Z,97082.44
2023-01-27T08:32:39.326Z,97087.13
2023-01-27T08:38:00.211Z,97083.19
2023-01-27T08:43:21.051Z,97089.63
2023-01-27T08:48:42.572Z,97097.31
2023-01-27T08:54:04.219Z,97102.44
2023-01-27T08:59:25.318Z,97103.81
2023-01-27T09:04:46.403Z,97116.72
2023-01-27T09:10:14.481Z,97123.59
2023-01-27T09:15:37.659Z,97127.44
2023-01-27T09:20:58.530Z,97121.44
2023-01-27T09:26:19.382Z,97125.31
2023-01-27T09:31:40.234Z,97128.50
2023-01-27T09:37:07.852Z,97132.66
2023-01-27T09:42:50.960Z,97141.34
2023-01-27T09:48:14.677Z,97148.44
2023-01-27T09:53:47.845Z,97148.44
2023-01-27T09:59:42.262Z,97144.88
2023-01-27T10:05:47.620Z,97147.38
2023-01-27T10:11:26.871Z,97144.16
2023-01-27T10:17:05.658Z,97152.59
2023-01-27T10:23:01.097Z,97148.22
2023-01-27T10:28:24.496Z,97146.06
2023-01-27T10:33:48.367Z,97145.00
2023-01-27T10:39:23.189Z,97139.94
2023-01-27T10:45:15.853Z,97146.88
2023-01-27T10:51:13.931Z,97152.91
2023-01-27T10:56:57.088Z,97152.38
2023-01-27T11:02:30.146Z,97151.25
2023-01-27T11:07:59.389Z,97147.84
2023-01-27T11:13:19.978Z,97147.91
2023-01-27T11:18:46.578Z,97148.38
2023-01-27T11:24:24.811Z,97143.97
2023-01-27T11:30:01.257Z,97141.31
2023-01-27T11:35:22.887Z,97141.13
2023-01-27T11:40:45.759Z,97134.53
2023-01-27T11:46:11.117Z,97125.31
2023-01-27T11:51:40.124Z,97129.78
2023-01-27T11:57:02.913Z,97118.72
2023-01-27T12:02:35.531Z,97111.91
2023-01-27T12:08:00.184Z,97115.34
2023-01-27T12:13:25.813Z,97120.91
2023-01-27T12:19:02.813Z,97120.72
2023-01-27T12:24:38.822Z,97128.34
2023-01-27T12:30:07.637Z,97123.72
2023-01-27T12:35:36.734Z,97118.22
2023-01-27T12:41:01.928Z,97114.63
2023-01-27T12:46:28.271Z,97113.47
2023-01-27T12:51:55.082Z,97111.09
2023-01-27T12:57:19.975Z,97112.84
2023-01-27T13:02:40.915Z,97105.84
2023-01-27T13:08:02.098Z,97104.69
2023-01-27T13:13:28.916Z,97111.91
2023-01-27T13:19:16.778Z,97105.31
2023-01-27T13:24:42.597Z,97110.69
2023-01-27T13:30:29.046Z,97116.13
2023-01-27T13:36:25.180Z,97113.22
2023-01-27T13:41:53.160Z,97121.53
2023-01-27T13:47:23.847Z,97124.03
2023-01-27T13:52:50.228Z,97135.41
2023-01-27T13:58:14.946Z,97137.47
2023-01-27T14:04:05.823Z,97131.97
2023-01-27T14:09:32.759Z,97140.44
2023-01-27T14:15:24.308Z,97143.13
2023-01-27T14:20:59.946Z,97132.03
2023-01-27T14:26:33.094Z,97130.94
2023-01-27T14:32:01.515Z,97140.59
2023-01-27T14:37:28.386Z,97152.03
2023-01-27T14:43:12.123Z,97148.72
2023-01-27T14:48:45.748Z,97151.06
2023-01-27T14:54:25.333Z,97154.66
2023-01-27T14:59:46.419Z,97157.09
2023-01-27T15:05:19.361Z,97156.16
2023-01-27T15:11:01.031Z,97150.41
2023-01-27T15:16:37.359Z,97144.34
2023-01-27T15:22:31.169Z,97143.69
2023-01-27T15:27:53.726Z,97154.69
2023-01-27T15:33:54.859Z,97157.81
2023-01-27T15:39:20.274Z,97149.88
2023-01-27T15:45:00.002Z,97163.00
2023-01-27T15:50:26.129Z,97166.34
2023-01-27T15:55:53.526Z,97160.75
2023-01-27T16:01:26.696Z,97168.88
2023-01-27T16:07:01.982Z,97175.75
2023-01-27T16:12:37.210Z,97170.19
2023-01-27T16:18:07.020Z,97178.81
2023-01-27T16:23:48.899Z,97184.53
2023-01-27T16:29:12.597Z,97187.63
2023-01-27T16:34:44.577Z,97190.13
2023-01-27T16:40:14.958Z,97186.25
2023-01-27T16:45:43.559Z,97185.53
2023-01-27T16:51:26.505Z,97189.06
2023-01-27T16:56:51.522Z,97204.16
2023-01-27T17:02:32.263Z,97206.28
2023-01-27T17:08:03.096Z,97206.50
2023-01-27T17:13:48.520Z,97216.19
2023-01-27T17:19:16.751Z,97214.66
2023-01-27T17:24:59.721Z,97214.47
2023-01-27T17:30:26.872Z,97214.75
2023-01-27T17:35:56.628Z,97225.81
2023-01-27T17:41:27.310Z,97227.91
2023-01-27T17:46:48.291Z,97237.94
2023-01-27T17:52:11.418Z,97237.41
2023-01-27T17:57:34.244Z,97233.19
2023-01-27T18:03:04.317Z,97239.31
2023-01-27T18:08:25.199Z,97235.28
2023-01-27T18:13:46.509Z,97243.75
2023-01-27T18:19:23.305Z,97236.75
2023-01-27T18:24:54.147Z,97234.31
2023-01-27T18:30:19.117Z,97243.91
2023-01-27T18:35:42.141Z,97257.78
2023-01-27T18:41:10.926Z,97258.53
2023-01-27T18:46:32.149Z,97260.13
2023-01-27T18:51:52.844Z,97257.56
2023-01-27T18:57:13.764Z,97260.84
2023-01-27T19:02:34.788Z,97268.00
2023-01-27T19:07:56.976Z,97261.63
2023-01-27T19:13:18.608Z,97277.00
2023-01-27T19:18:40.926Z,97264.09
2023-01-27T19:24:02.150Z,97269.41
2023-01-27T19:29:22.882Z,97273.47
2023-01-27T19:34:44.894Z,97281.94
2023-01-27T19:40:17.289Z,97288.44
2023-01-27T19:45:38.266Z,97296.22
2023-01-27T19:50:58.975Z,97307.63
2023-01-27T19:56:22.737Z,97312.56
2023-01-27T20:01:44.133Z,97320.25
2023-01-27T20:07:06.016Z,97325.22
2023-01-27T20:12:26.906Z,97319.59
2023-01-27T20:17:47.952Z,97317.41
2023-01-27T20:23:09.668Z,97328.13
2023-01-27T20:28:30.389Z,97317.19
2023-01-27T20:33:51.823Z,97327.03
2023-01-27T20:39:12.905Z,97328.81
2023-01-27T20:44:33.779Z,97329.75
2023-01-27T20:49:54.512Z,97346.53
2023-01-27T20:55:17.320Z,97345.22
2023-01-27T21:00:39.633Z,97342.59
2023-01-27T21:06:04.797Z,97340.56
2023-01-27T21:11:25.880Z,97342.66
2023-01-27T21:16:46.682Z,97340.16
2023-01-27T21:22:07.344Z,97344.38
2023-01-27T21:27:28.125Z,97338.78
2023-01-27T21:32:48.943Z,97342.81
2023-01-27T21:38:09.941Z,97345.06
2023-01-27T21:43:49.062Z,97332.56
2023-01-27T21:49:09.729Z,97342.91
2023-01-27T21:54:30.375Z,97350.97
2023-01-27T21:59:51.247Z,97347.78
2023-01-27T22:05:13.320Z,97341.34
2023-01-27T22:10:34.693Z,97332.31
2023-01-27T22:15:55.496Z,97331.59
2023-01-27T22:21:16.187Z,97337.38
2023-01-27T22:26:37.154Z,97333.69
2023-01-27T22:31:58.092Z,97325.47
2023-01-27T22:37:18.796Z,97329.03
2023-01-27T22:42:42.124Z,97326.47
2023-01-27T22:48:03.097Z,97334.56
2023-01-27T22:53:23.889Z,97346.72
2023-01-27T22:58:44.560Z,97342.91
2023-01-27T23:04:05.445Z,97329.81
2023-01-27T23:09:26.302Z,97323.91
2023-01-27T23:14:47.167Z,97310.25
2023-01-27T23:20:08.676Z,97301.03
2023-01-27T23:25:29.419Z,97306.66
2023-01-27T23:30:51.195Z,97317.47
2023-01-27T23:36:13.036Z,97316.75
2023-01-27T23:41:33.830Z,97315.25
2023-01-27T23:46:54.685Z,97315.13
2023-01-27T23:52:15.777Z,97318.38
2023-01-27T23:57:36.692Z,97321.28
